sensor_id;sensor_type;location;lat;lon;timestamp;temperature;humidity
65034;DHT22;51601;51.356;12.458;2023-07-13T00:02:28;22.50;51.00
65034;DHT22;51601;51.356;12.458;2023-07-13T00:06:47;22.40;51.60
65034;DHT22;51601;51.356;12.458;2023-07-13T00:11:04;22.30;51.80
65034;DHT22;51601;51.356;12.458;2023-07-13T00:15:25;22.30;52.00
65034;DHT22;51601;51.356;12.458;2023-07-13T00:19:43;22.20;52.40
65034;DHT22;51601;51.356;12.458;2023-07-13T00:24:01;22.20;53.40
65034;DHT22;51601;51.356;12.458;2023-07-13T00:28:19;22.20;54.00
65034;DHT22;51601;51.356;12.458;2023-07-13T00:32:39;22.10;53.50
65034;DHT22;51601;51.356;12.458;2023-07-13T00:36:59;22.10;53.20
65034;DHT22;51601;51.356;12.458;2023-07-13T00:41:17;22.10;52.90
65034;DHT22;51601;51.356;12.458;2023-07-13T00:50:37;22.10;53.00
65034;DHT22;51601;51.356;12.458;2023-07-13T00:54:57;22.00;53.00
65034;DHT22;51601;51.356;12.458;2023-07-13T00:59:16;22.00;53.30
65034;DHT22;51601;51.356;12.458;2023-07-13T01:03:36;22.00;53.20
65034;DHT22;51601;51.356;12.458;2023-07-13T01:07:55;21.90;53.20
65034;DHT22;51601;51.356;12.458;2023-07-13T01:12:12;21.90;54.00
65034;DHT22;51601;51.356;12.458;2023-07-13T01:16:35;21.90;53.30
65034;DHT22;51601;51.356;12.458;2023-07-13T01:20:57;21.90;53.00
65034;DHT22;51601;51.356;12.458;2023-07-13T01:25:16;21.80;52.80
65034;DHT22;51601;51.356;12.458;2023-07-13T01:29:35;21.80;52.60
65034;DHT22;51601;51.356;12.458;2023-07-13T01:33:58;21.70;52.50
65034;DHT22;51601;51.356;12.458;2023-07-13T01:38:21;21.60;52.50
65034;DHT22;51601;51.356;12.458;2023-07-13T01:42:40;21.50;52.60
65034;DHT22;51601;51.356;12.458;2023-07-13T01:46:58;21.50;52.70
65034;DHT22;51601;51.356;12.458;2023-07-13T01:51:17;21.40;52.70
65034;DHT22;51601;51.356;12.458;2023-07-13T01:55:37;21.40;53.10
65034;DHT22;51601;51.356;12.458;2023-07-13T01:59:56;21.40;53.30
65034;DHT22;51601;51.356;12.458;2023-07-13T02:04:13;21.30;53.00
65034;DHT22;51601;51.356;12.458;2023-07-13T02:08:32;21.30;53.20
65034;DHT22;51601;51.356;12.458;2023-07-13T02:12:51;21.20;53.40
65034;DHT22;51601;51.356;12.458;2023-07-13T02:17:09;21.20;53.50
65034;DHT22;51601;51.356;12.458;2023-07-13T02:21:25;21.20;53.70
65034;DHT22;51601;51.356;12.458;2023-07-13T02:25:44;21.10;53.80
65034;DHT22;51601;51.356;12.458;2023-07-13T02:30:04;21.00;54.00
65034;DHT22;51601;51.356;12.458;2023-07-13T02:34:23;21.00;54.30
65034;DHT22;51601;51.356;12.458;2023-07-13T02:38:41;20.90;54.40
65034;DHT22;51601;51.356;12.458;2023-07-13T02:42:59;20.90;54.70
65034;DHT22;51601;51.356;12.458;2023-07-13T02:47:21;20.80;54.90
65034;DHT22;51601;51.356;12.458;2023-07-13T02:51:38;20.80;55.10
65034;DHT22;51601;51.356;12.458;2023-07-13T02:55:56;20.80;55.30
65034;DHT22;51601;51.356;12.458;2023-07-13T03:00:14;20.70;55.40
65034;DHT22;51601;51.356;12.458;2023-07-13T03:04:35;20.70;55.60
65034;DHT22;51601;51.356;12.458;2023-07-13T03:08:53;20.60;55.60
65034;DHT22;51601;51.356;12.458;2023-07-13T03:13:11;20.50;55.80
65034;DHT22;51601;51.356;12.458;2023-07-13T03:17:30;20.30;56.10
65034;DHT22;51601;51.356;12.458;2023-07-13T03:21:49;20.10;56.60
65034;DHT22;51601;51.356;12.458;2023-07-13T03:26:08;20.00;57.10
65034;DHT22;51601;51.356;12.458;2023-07-13T03:30:30;19.80;57.50
65034;DHT22;51601;51.356;12.458;2023-07-13T03:34:48;19.60;58.30
65034;DHT22;51601;51.356;12.458;2023-07-13T03:39:09;19.40;59.10
65034;DHT22;51601;51.356;12.458;2023-07-13T03:43:33;19.30;59.70
65034;DHT22;51601;51.356;12.458;2023-07-13T03:47:52;19.10;60.20
65034;DHT22;51601;51.356;12.458;2023-07-13T03:52:09;19.10;60.70
65034;DHT22;51601;51.356;12.458;2023-07-13T03:56:29;19.10;60.90
65034;DHT22;51601;51.356;12.458;2023-07-13T04:00:52;19.10;61.50
65034;DHT22;51601;51.356;12.458;2023-07-13T04:05:10;19.40;62.10
65034;DHT22;51601;51.356;12.458;2023-07-13T04:09:28;19.70;62.10
65034;DHT22;51601;51.356;12.458;2023-07-13T04:13:47;20.20;61.90
65034;DHT22;51601;51.356;12.458;2023-07-13T04:18:10;20.70;61.20
65034;DHT22;51601;51.356;12.458;2023-07-13T04:22:28;21.20;60.40
65034;DHT22;51601;51.356;12.458;2023-07-13T04:26:46;21.80;59.40
65034;DHT22;51601;51.356;12.458;2023-07-13T04:31:05;22.40;58.50
65034;DHT22;51601;51.356;12.458;2023-07-13T04:35:25;23.00;57.40
65034;DHT22;51601;51.356;12.458;2023-07-13T04:39:44;23.70;56.30
65034;DHT22;51601;51.356;12.458;2023-07-13T04:44:01;24.30;54.90
65034;DHT22;51601;51.356;12.458;2023-07-13T04:48:21;25.00;53.60
65034;DHT22;51601;51.356;12.458;2023-07-13T04:52:41;25.60;52.50
65034;DHT22;51601;51.356;12.458;2023-07-13T04:56:59;26.20;51.50
65034;DHT22;51601;51.356;12.458;2023-07-13T05:01:17;26.90;50.20
65034;DHT22;51601;51.356;12.458;2023-07-13T05:05:36;27.40;49.00
65034;DHT22;51601;51.356;12.458;2023-07-13T05:09:53;28.00;48.00
65034;DHT22;51601;51.356;12.458;2023-07-13T05:14:11;28.60;47.50
65034;DHT22;51601;51.356;12.458;2023-07-13T05:18:29;29.10;45.60
65034;DHT22;51601;51.356;12.458;2023-07-13T05:22:48;29.70;44.90
65034;DHT22;51601;51.356;12.458;2023-07-13T05:27:08;30.20;43.80
65034;DHT22;51601;51.356;12.458;2023-07-13T05:31:26;30.60;42.70
65034;DHT22;51601;51.356;12.458;2023-07-13T05:35:44;31.10;41.30
65034;DHT22;51601;51.356;12.458;2023-07-13T05:40:04;31.40;40.40
65034;DHT22;51601;51.356;12.458;2023-07-13T05:44:24;31.80;39.90
65034;DHT22;51601;51.356;12.458;2023-07-13T05:48:42;32.10;39.20
65034;DHT22;51601;51.356;12.458;2023-07-13T05:52:59;32.60;38.50
65034;DHT22;51601;51.356;12.458;2023-07-13T05:57:19;32.90;37.30
65034;DHT22;51601;51.356;12.458;2023-07-13T06:01:39;33.10;36.90
65034;DHT22;51601;51.356;12.458;2023-07-13T06:05:57;33.00;36.40
65034;DHT22;51601;51.356;12.458;2023-07-13T06:10:18;32.90;36.50
65034;DHT22;51601;51.356;12.458;2023-07-13T06:14:37;33.10;36.50
65034;DHT22;51601;51.356;12.458;2023-07-13T06:18:54;33.30;35.70
65034;DHT22;51601;51.356;12.458;2023-07-13T06:23:12;33.10;35.30
65034;DHT22;51601;51.356;12.458;2023-07-13T06:27:30;32.80;35.80
65034;DHT22;51601;51.356;12.458;2023-07-13T06:31:49;32.80;36.10
65034;DHT22;51601;51.356;12.458;2023-07-13T06:36:07;32.90;36.30
65034;DHT22;51601;51.356;12.458;2023-07-13T06:40:24;33.30;35.90
65034;DHT22;51601;51.356;12.458;2023-07-13T06:44:45;34.00;35.00
65034;DHT22;51601;51.356;12.458;2023-07-13T06:49:05;34.40;34.30
65034;DHT22;51601;51.356;12.458;2023-07-13T06:53:22;34.80;33.60
65034;DHT22;51601;51.356;12.458;2023-07-13T06:57:39;35.00;33.00
65034;DHT22;51601;51.356;12.458;2023-07-13T07:01:58;35.20;32.40
65034;DHT22;51601;51.356;12.458;2023-07-13T07:06:19;35.40;31.60
65034;DHT22;51601;51.356;12.458;2023-07-13T07:10:37;35.40;31.10
65034;DHT22;51601;51.356;12.458;2023-07-13T07:14:55;35.50;31.30
65034;DHT22;51601;51.356;12.458;2023-07-13T07:19:13;35.80;30.90
65034;DHT22;51601;51.356;12.458;2023-07-13T07:23:32;36.20;30.80
65034;DHT22;51601;51.356;12.458;2023-07-13T07:27:52;36.80;30.30
65034;DHT22;51601;51.356;12.458;2023-07-13T07:32:13;37.40;30.00
65034;DHT22;51601;51.356;12.458;2023-07-13T07:36:54;37.60;29.30
65034;DHT22;51601;51.356;12.458;2023-07-13T07:41:15;36.90;29.30
65034;DHT22;51601;51.356;12.458;2023-07-13T07:45:35;36.50;30.00
65034;DHT22;51601;51.356;12.458;2023-07-13T07:49:53;36.30;30.00
65034;DHT22;51601;51.356;12.458;2023-07-13T07:54:11;36.20;30.20
65034;DHT22;51601;51.356;12.458;2023-07-13T07:58:40;36.40;30.00
65034;DHT22;51601;51.356;12.458;2023-07-13T08:03:00;36.50;29.60
65034;DHT22;51601;51.356;12.458;2023-07-13T08:07:39;35.90;29.40
65034;DHT22;51601;51.356;12.458;2023-07-13T08:11:57;34.70;29.80
65034;DHT22;51601;51.356;12.458;2023-07-13T08:16:20;33.60;30.60
65034;DHT22;51601;51.356;12.458;2023-07-13T08:20:39;32.60;31.40
65034;DHT22;51601;51.356;12.458;2023-07-13T08:24:58;31.80;32.30
65034;DHT22;51601;51.356;12.458;2023-07-13T08:29:16;31.70;32.90
65034;DHT22;51601;51.356;12.458;2023-07-13T08:33:35;32.40;32.90
65034;DHT22;51601;51.356;12.458;2023-07-13T08:37:55;33.50;32.20
65034;DHT22;51601;51.356;12.458;2023-07-13T08:42:16;34.70;30.90
65034;DHT22;51601;51.356;12.458;2023-07-13T08:46:38;35.40;29.90
65034;DHT22;51601;51.356;12.458;2023-07-13T08:51:04;36.10;29.50
65034;DHT22;51601;51.356;12.458;2023-07-13T08:55:31;36.80;29.00
65034;DHT22;51601;51.356;12.458;2023-07-13T08:59:53;37.30;28.50
65034;DHT22;51601;51.356;12.458;2023-07-13T09:04:15;37.40;27.70
65034;DHT22;51601;51.356;12.458;2023-07-13T09:08:50;36.70;28.00
65034;DHT22;51601;51.356;12.458;2023-07-13T09:13:23;35.60;28.10
65034;DHT22;51601;51.356;12.458;2023-07-13T09:17:46;34.90;28.80
65034;DHT22;51601;51.356;12.458;2023-07-13T09:22:11;34.90;29.20
65034;DHT22;51601;51.356;12.458;2023-07-13T09:26:33;35.40;28.80
65034;DHT22;51601;51.356;12.458;2023-07-13T09:30:56;36.10;28.60
65034;DHT22;51601;51.356;12.458;2023-07-13T09:35:18;36.80;27.90
65034;DHT22;51601;51.356;12.458;2023-07-13T09:39:39;36.80;27.80
65034;DHT22;51601;51.356;12.458;2023-07-13T09:44:07;37.00;27.90
65034;DHT22;51601;51.356;12.458;2023-07-13T09:48:34;37.50;27.40
65034;DHT22;51601;51.356;12.458;2023-07-13T09:52:52;37.80;26.80
65034;DHT22;51601;51.356;12.458;2023-07-13T09:57:13;37.30;26.90
65034;DHT22;51601;51.356;12.458;2023-07-13T10:01:34;36.50;27.40
65034;DHT22;51601;51.356;12.458;2023-07-13T10:05:53;35.90;27.90
65034;DHT22;51601;51.356;12.458;2023-07-13T10:10:14;36.00;28.10
65034;DHT22;51601;51.356;12.458;2023-07-13T10:14:35;36.10;28.00
65034;DHT22;51601;51.356;12.458;2023-07-13T10:18:56;36.00;27.50
65034;DHT22;51601;51.356;12.458;2023-07-13T10:23:31;35.40;27.60
65034;DHT22;51601;51.356;12.458;2023-07-13T10:27:53;34.60;28.40
65034;DHT22;51601;51.356;12.458;2023-07-13T10:32:12;34.50;29.20
65034;DHT22;51601;51.356;12.458;2023-07-13T10:36:39;34.80;29.20
65034;DHT22;51601;51.356;12.458;2023-07-13T10:41:02;35.30;28.80
65034;DHT22;51601;51.356;12.458;2023-07-13T10:45:22;35.30;28.40
65034;DHT22;51601;51.356;12.458;2023-07-13T10:49:42;34.90;28.50
65034;DHT22;51601;51.356;12.458;2023-07-13T10:54:19;34.60;28.90
65034;DHT22;51601;51.356;12.458;2023-07-13T10:58:41;34.30;28.90
65034;DHT22;51601;51.356;12.458;2023-07-13T11:02:59;34.10;29.50
65034;DHT22;51601;51.356;12.458;2023-07-13T11:07:21;34.30;29.50
65034;DHT22;51601;51.356;12.458;2023-07-13T11:11:41;34.30;28.90
65034;DHT22;51601;51.356;12.458;2023-07-13T11:16:12;33.90;29.20
65034;DHT22;51601;51.356;12.458;2023-07-13T11:20:37;33.80;29.20
65034;DHT22;51601;51.356;12.458;2023-07-13T11:24:58;33.90;28.50
65034;DHT22;51601;51.356;12.458;2023-07-13T11:29:27;34.00;28.30
65034;DHT22;51601;51.356;12.458;2023-07-13T11:33:54;34.30;27.70
65034;DHT22;51601;51.356;12.458;2023-07-13T11:38:17;34.60;27.70
65034;DHT22;51601;51.356;12.458;2023-07-13T11:42:39;34.60;27.50
65034;DHT22;51601;51.356;12.458;2023-07-13T11:47:00;34.20;27.60
65034;DHT22;51601;51.356;12.458;2023-07-13T11:51:33;33.80;27.80
65034;DHT22;51601;51.356;12.458;2023-07-13T11:55:52;33.40;28.10
65034;DHT22;51601;51.356;12.458;2023-07-13T12:00:16;33.10;28.00
65034;DHT22;51601;51.356;12.458;2023-07-13T12:04:35;32.60;28.20
65034;DHT22;51601;51.356;12.458;2023-07-13T12:08:59;32.00;28.40
65034;DHT22;51601;51.356;12.458;2023-07-13T12:13:19;31.50;28.80
65034;DHT22;51601;51.356;12.458;2023-07-13T12:17:42;31.00;29.60
65034;DHT22;51601;51.356;12.458;2023-07-13T12:22:03;30.60;29.60
65034;DHT22;51601;51.356;12.458;2023-07-13T12:26:22;30.20;29.50
65034;DHT22;51601;51.356;12.458;2023-07-13T12:30:40;30.00;30.00
65034;DHT22;51601;51.356;12.458;2023-07-13T12:35:15;29.70;29.80
65034;DHT22;51601;51.356;12.458;2023-07-13T12:39:43;29.50;29.90
65034;DHT22;51601;51.356;12.458;2023-07-13T12:44:03;29.30;30.10
65034;DHT22;51601;51.356;12.458;2023-07-13T12:48:20;29.20;30.10
65034;DHT22;51601;51.356;12.458;2023-07-13T12:53:03;29.10;30.30
65034;DHT22;51601;51.356;12.458;2023-07-13T12:57:26;29.10;31.00
65034;DHT22;51601;51.356;12.458;2023-07-13T13:01:46;29.10;31.30
65034;DHT22;51601;51.356;12.458;2023-07-13T13:06:21;29.10;31.40
65034;DHT22;51601;51.356;12.458;2023-07-13T13:10:40;29.20;31.70
65034;DHT22;51601;51.356;12.458;2023-07-13T13:14:59;29.10;31.60
65034;DHT22;51601;51.356;12.458;2023-07-13T13:19:21;29.10;31.50
65034;DHT22;51601;51.356;12.458;2023-07-13T13:23:40;29.00;31.30
65034;DHT22;51601;51.356;12.458;2023-07-13T13:27:58;28.80;31.50
65034;DHT22;51601;51.356;12.458;2023-07-13T13:32:18;28.70;31.60
65034;DHT22;51601;51.356;12.458;2023-07-13T13:36:38;28.60;31.90
65034;DHT22;51601;51.356;12.458;2023-07-13T13:40:55;28.40;31.70
65034;DHT22;51601;51.356;12.458;2023-07-13T13:45:13;28.30;31.80
65034;DHT22;51601;51.356;12.458;2023-07-13T13:49:36;28.20;32.00
65034;DHT22;51601;51.356;12.458;2023-07-13T13:53:52;28.10;32.30
65034;DHT22;51601;51.356;12.458;2023-07-13T13:58:11;28.00;32.40
65034;DHT22;51601;51.356;12.458;2023-07-13T14:02:29;28.00;32.80
65034;DHT22;51601;51.356;12.458;2023-07-13T14:06:51;28.00;33.00
65034;DHT22;51601;51.356;12.458;2023-07-13T14:11:12;28.00;33.30
65034;DHT22;51601;51.356;12.458;2023-07-13T14:15:29;28.10;33.40
65034;DHT22;51601;51.356;12.458;2023-07-13T14:19:47;28.20;33.20
65034;DHT22;51601;51.356;12.458;2023-07-13T14:24:09;28.20;34.00
65034;DHT22;51601;51.356;12.458;2023-07-13T14:28:27;28.20;33.30
65034;DHT22;51601;51.356;12.458;2023-07-13T14:32:45;28.10;33.40
65034;DHT22;51601;51.356;12.458;2023-07-13T14:37:03;28.00;33.50
65034;DHT22;51601;51.356;12.458;2023-07-13T14:41:22;28.00;33.20
65034;DHT22;51601;51.356;12.458;2023-07-13T14:45:44;28.00;33.50
65034;DHT22;51601;51.356;12.458;2023-07-13T14:50:03;28.00;33.30
65034;DHT22;51601;51.356;12.458;2023-07-13T14:54:21;28.00;33.30
65034;DHT22;51601;51.356;12.458;2023-07-13T14:58:41;27.90;33.30
65034;DHT22;51601;51.356;12.458;2023-07-13T15:03:00;27.80;33.20
65034;DHT22;51601;51.356;12.458;2023-07-13T15:07:18;27.70;33.20
65034;DHT22;51601;51.356;12.458;2023-07-13T15:11:36;27.60;33.20
65034;DHT22;51601;51.356;12.458;2023-07-13T15:15:55;27.50;33.40
65034;DHT22;51601;51.356;12.458;2023-07-13T15:20:19;27.50;33.30
65034;DHT22;51601;51.356;12.458;2023-07-13T15:24:39;27.50;33.40
65034;DHT22;51601;51.356;12.458;2023-07-13T15:28:57;27.40;33.30
65034;DHT22;51601;51.356;12.458;2023-07-13T15:33:21;27.40;33.30
65034;DHT22;51601;51.356;12.458;2023-07-13T15:37:43;27.30;33.30
65034;DHT22;51601;51.356;12.458;2023-07-13T15:42:01;27.40;33.60
65034;DHT22;51601;51.356;12.458;2023-07-13T15:46:20;27.50;33.60
65034;DHT22;51601;51.356;12.458;2023-07-13T15:50:43;27.50;33.60
65034;DHT22;51601;51.356;12.458;2023-07-13T15:55:01;27.50;33.50
65034;DHT22;51601;51.356;12.458;2023-07-13T15:59:19;27.50;33.60
65034;DHT22;51601;51.356;12.458;2023-07-13T16:03:37;27.40;33.80
65034;DHT22;51601;51.356;12.458;2023-07-13T16:07:57;27.30;34.00
65034;DHT22;51601;51.356;12.458;2023-07-13T16:12:16;27.30;34.10
65034;DHT22;51601;51.356;12.458;2023-07-13T16:16:34;27.20;34.30
65034;DHT22;51601;51.356;12.458;2023-07-13T16:20:53;27.20;34.40
65034;DHT22;51601;51.356;12.458;2023-07-13T16:25:17;27.10;34.70
65034;DHT22;51601;51.356;12.458;2023-07-13T16:29:35;27.00;34.40
65034;DHT22;51601;51.356;12.458;2023-07-13T16:33:56;27.00;34.40
65034;DHT22;51601;51.356;12.458;2023-07-13T16:38:16;27.00;34.70
65034;DHT22;51601;51.356;12.458;2023-07-13T16:42:36;26.90;34.80
65034;DHT22;51601;51.356;12.458;2023-07-13T16:46:54;26.90;35.10
65034;DHT22;51601;51.356;12.458;2023-07-13T16:51:11;26.80;35.30
65034;DHT22;51601;51.356;12.458;2023-07-13T16:55:29;26.60;35.60
65034;DHT22;51601;51.356;12.458;2023-07-13T16:59:49;26.60;35.80
65034;DHT22;51601;51.356;12.458;2023-07-13T17:04:09;26.50;35.80
65034;DHT22;51601;51.356;12.458;2023-07-13T17:08:29;26.40;36.30
65034;DHT22;51601;51.356;12.458;2023-07-13T17:12:48;26.30;36.50
65034;DHT22;51601;51.356;12.458;2023-07-13T17:17:14;26.20;36.60
65034;DHT22;51601;51.356;12.458;2023-07-13T17:21:33;26.10;36.80
65034;DHT22;51601;51.356;12.458;2023-07-13T17:25:51;26.00;37.00
65034;DHT22;51601;51.356;12.458;2023-07-13T17:30:14;25.90;37.10
65034;DHT22;51601;51.356;12.458;2023-07-13T17:34:35;25.90;37.30
65034;DHT22;51601;51.356;12.458;2023-07-13T17:39:01;25.80;37.40
65034;DHT22;51601;51.356;12.458;2023-07-13T17:43:22;25.70;37.50
65034;DHT22;51601;51.356;12.458;2023-07-13T17:47:40;25.70;37.70
65034;DHT22;51601;51.356;12.458;2023-07-13T17:52:00;25.70;37.90
65034;DHT22;51601;51.356;12.458;2023-07-13T17:56:19;25.70;38.10
65034;DHT22;51601;51.356;12.458;2023-07-13T18:00:42;25.60;38.30
65034;DHT22;51601;51.356;12.458;2023-07-13T18:05:01;25.50;39.40
65034;DHT22;51601;51.356;12.458;2023-07-13T18:09:27;25.30;39.20
65034;DHT22;51601;51.356;12.458;2023-07-13T18:13:47;25.20;39.20
65034;DHT22;51601;51.356;12.458;2023-07-13T18:18:07;25.10;39.40
65034;DHT22;51601;51.356;12.458;2023-07-13T18:22:26;25.00;39.70
65034;DHT22;51601;51.356;12.458;2023-07-13T18:26:45;25.00;39.90
65034;DHT22;51601;51.356;12.458;2023-07-13T18:31:02;24.80;40.10
65034;DHT22;51601;51.356;12.458;2023-07-13T18:35:26;24.80;40.40
65034;DHT22;51601;51.356;12.458;2023-07-13T18:39:44;24.70;40.60
65034;DHT22;51601;51.356;12.458;2023-07-13T18:44:04;24.60;40.90
65034;DHT22;51601;51.356;12.458;2023-07-13T18:48:27;24.40;41.20
65034;DHT22;51601;51.356;12.458;2023-07-13T18:52:45;24.30;41.40
65034;DHT22;51601;51.356;12.458;2023-07-13T18:57:06;24.20;41.60
65034;DHT22;51601;51.356;12.458;2023-07-13T19:01:30;24.00;42.30
65034;DHT22;51601;51.356;12.458;2023-07-13T19:05:48;23.80;44.00
65034;DHT22;51601;51.356;12.458;2023-07-13T19:10:16;23.60;45.30
65034;DHT22;51601;51.356;12.458;2023-07-13T19:14:36;23.30;46.40
65034;DHT22;51601;51.356;12.458;2023-07-13T19:18:56;23.00;47.40
65034;DHT22;51601;51.356;12.458;2023-07-13T19:23:24;22.70;48.00
65034;DHT22;51601;51.356;12.458;2023-07-13T19:27:43;22.40;49.20
65034;DHT22;51601;51.356;12.458;2023-07-13T19:32:01;22.10;49.80
65034;DHT22;51601;51.356;12.458;2023-07-13T19:36:21;21.80;50.50
65034;DHT22;51601;51.356;12.458;2023-07-13T19:40:40;21.50;51.00
65034;DHT22;51601;51.356;12.458;2023-07-13T19:44:59;21.40;51.80
65034;DHT22;51601;51.356;12.458;2023-07-13T19:49:16;21.20;52.50
65034;DHT22;51601;51.356;12.458;2023-07-13T19:53:35;21.00;52.80
65034;DHT22;51601;51.356;12.458;2023-07-13T19:57:53;20.90;53.30
65034;DHT22;51601;51.356;12.458;2023-07-13T20:02:10;20.90;53.80
65034;DHT22;51601;51.356;12.458;2023-07-13T20:06:30;20.80;54.30
65034;DHT22;51601;51.356;12.458;2023-07-13T20:10:52;20.60;54.80
65034;DHT22;51601;51.356;12.458;2023-07-13T20:15:14;20.60;55.10
65034;DHT22;51601;51.356;12.458;2023-07-13T20:19:33;20.50;55.40
65034;DHT22;51601;51.356;12.458;2023-07-13T20:23:53;20.40;55.70
65034;DHT22;51601;51.356;12.458;2023-07-13T20:28:12;20.30;56.10
65034;DHT22;51601;51.356;12.458;2023-07-13T20:32:32;20.30;56.60
65034;DHT22;51601;51.356;12.458;2023-07-13T20:36:51;20.20;56.70
65034;DHT22;51601;51.356;12.458;2023-07-13T20:41:11;20.20;56.80
65034;DHT22;51601;51.356;12.458;2023-07-13T20:45:33;20.20;56.90
65034;DHT22;51601;51.356;12.458;2023-07-13T20:49:50;20.20;56.90
65034;DHT22;51601;51.356;12.458;2023-07-13T20:54:13;20.10;56.90
65034;DHT22;51601;51.356;12.458;2023-07-13T20:58:33;20.10;57.00
65034;DHT22;51601;51.356;12.458;2023-07-13T21:02:56;20.00;57.10
65034;DHT22;51601;51.356;12.458;2023-07-13T21:07:18;20.00;57.30
65034;DHT22;51601;51.356;12.458;2023-07-13T21:11:36;19.90;57.50
65034;DHT22;51601;51.356;12.458;2023-07-13T21:15:54;19.90;57.70
65034;DHT22;51601;51.356;12.458;2023-07-13T21:20:20;19.80;58.00
65034;DHT22;51601;51.356;12.458;2023-07-13T21:24:39;19.70;58.20
65034;DHT22;51601;51.356;12.458;2023-07-13T21:28:57;19.60;58.40
65034;DHT22;51601;51.356;12.458;2023-07-13T21:33:16;19.60;58.70
65034;DHT22;51601;51.356;12.458;2023-07-13T21:37:38;19.50;58.90
65034;DHT22;51601;51.356;12.458;2023-07-13T21:41:55;19.40;59.20
65034;DHT22;51601;51.356;12.458;2023-07-13T21:46:13;19.40;59.60
65034;DHT22;51601;51.356;12.458;2023-07-13T21:50:36;19.30;59.90
65034;DHT22;51601;51.356;12.458;2023-07-13T21:54:56;19.20;60.00
65034;DHT22;51601;51.356;12.458;2023-07-13T21:59:18;19.20;60.30
65034;DHT22;51601;51.356;12.458;2023-07-13T22:03:37;19.10;60.50
65034;DHT22;51601;51.356;12.458;2023-07-13T22:07:58;19.10;60.80
65034;DHT22;51601;51.356;12.458;2023-07-13T22:12:18;19.00;61.20
65034;DHT22;51601;51.356;12.458;2023-07-13T22:16:35;19.00;61.90
65034;DHT22;51601;51.356;12.458;2023-07-13T22:20:52;18.90;62.10
65034;DHT22;51601;51.356;12.458;2023-07-13T22:25:11;18.80;62.40
65034;DHT22;51601;51.356;12.458;2023-07-13T22:29:32;18.60;62.60
65034;DHT22;51601;51.356;12.458;2023-07-13T22:33:50;18.60;63.00
65034;DHT22;51601;51.356;12.458;2023-07-13T22:38:12;18.50;63.30
65034;DHT22;51601;51.356;12.458;2023-07-13T22:42:32;18.50;63.60
65034;DHT22;51601;51.356;12.458;2023-07-13T22:46:55;18.50;63.70
65034;DHT22;51601;51.356;12.458;2023-07-13T22:51:16;18.50;64.00
65034;DHT22;51601;51.356;12.458;2023-07-13T22:55:36;18.50;64.20
65034;DHT22;51601;51.356;12.458;2023-07-13T22:59:56;18.40;64.40
65034;DHT22;51601;51.356;12.458;2023-07-13T23:04:21;18.40;64.50
65034;DHT22;51601;51.356;12.458;2023-07-13T23:08:39;18.30;64.50
65034;DHT22;51601;51.356;12.458;2023-07-13T23:12:57;18.30;64.50
65034;DHT22;51601;51.356;12.458;2023-07-13T23:17:18;18.30;64.60
65034;DHT22;51601;51.356;12.458;2023-07-13T23:21:38;18.30;64.80
65034;DHT22;51601;51.356;12.458;2023-07-13T23:25:57;18.30;64.90
65034;DHT22;51601;51.356;12.458;2023-07-13T23:30:16;18.30;65.00
65034;DHT22;51601;51.356;12.458;2023-07-13T23:34:36;18.20;64.90
65034;DHT22;51601;51.356;12.458;2023-07-13T23:38:56;18.10;65.00
65034;DHT22;51601;51.356;12.458;2023-07-13T23:43:15;18.10;65.10
65034;DHT22;51601;51.356;12.458;2023-07-13T23:47:34;18.10;65.40
65034;DHT22;51601;51.356;12.458;2023-07-13T23:51:54;18.00;65.50
65034;DHT22;51601;51.356;12.458;2023-07-13T23:56:18;17.90;66.00
